createdAt,value
2022-11-30T00:00:45.730Z,1013.91
2022-11-30T00:03:52.912Z,1013.91
2022-11-30T00:07:00.461Z,1013.85
2022-11-30T00:10:07.611Z,1013.89
2022-11-30T00:13:14.704Z,1013.84
2022-11-30T00:16:22.141Z,1013.89
2022-11-30T00:19:28.933Z,1013.89
2022-11-30T00:22:35.776Z,1013.97
2022-11-30T00:25:43.393Z,1013.99
2022-11-30T00:28:51.086Z,1013.89
2022-11-30T00:31:58.154Z,1013.91
2022-11-30T00:35:05.597Z,1013.97
2022-11-30T00:38:12.597Z,1013.94
2022-11-30T00:41:19.611Z,1013.95
2022-11-30T00:44:27.047Z,1013.85
2022-11-30T00:47:34.215Z,1013.85
2022-11-30T00:50:41.331Z,1013.84
2022-11-30T00:53:48.542Z,1013.91
2022-11-30T00:56:56.033Z,1013.89
2022-11-30T01:00:03.169Z,1013.86
2022-11-30T01:03:10.333Z,1013.89
2022-11-30T01:06:17.779Z,1013.85
2022-11-30T01:09:24.950Z,1013.82
2022-11-30T01:12:31.952Z,1013.82
2022-11-30T01:15:39.530Z,1013.92
2022-11-30T01:18:46.711Z,1013.91
2022-11-30T01:21:53.862Z,1013.85
2022-11-30T01:25:01.014Z,1013.90
2022-11-30T01:28:07.813Z,1013.98
2022-11-30T01:31:15.434Z,1013.89
2022-11-30T01:34:22.563Z,1013.91
2022-11-30T01:37:29.668Z,1013.94
2022-11-30T01:40:36.974Z,1013.95
2022-11-30T01:43:43.625Z,1013.97
2022-11-30T01:46:51.096Z,1013.88
2022-11-30T01:49:58.165Z,1013.92
2022-11-30T01:53:04.654Z,1013.93
2022-11-30T01:56:11.861Z,1014.00
2022-11-30T01:59:19.947Z,1013.97
2022-11-30T02:02:26.414Z,1013.92
2022-11-30T02:05:33.518Z,1013.88
2022-11-30T02:08:40.341Z,1013.95
2022-11-30T02:11:46.953Z,1013.98
2022-11-30T02:14:54.204Z,1013.88
2022-11-30T02:18:01.171Z,1013.91
2022-11-30T02:21:07.662Z,1013.95
2022-11-30T02:24:14.235Z,1013.95
2022-11-30T02:27:21.522Z,1013.94
2022-11-30T02:30:28.354Z,1013.95
2022-11-30T02:33:35.061Z,1013.95
2022-11-30T02:36:42.215Z,1013.90
2022-11-30T02:39:48.936Z,1013.88
2022-11-30T02:42:55.770Z,1013.84
2022-11-30T02:46:03.090Z,1013.85
2022-11-30T02:49:09.524Z,1013.88
2022-11-30T02:52:16.645Z,1013.88
2022-11-30T02:55:23.788Z,1013.90
2022-11-30T02:58:30.206Z,1013.93
2022-11-30T03:01:37.529Z,1013.89
2022-11-30T03:04:44.740Z,1013.90
2022-11-30T03:07:51.364Z,1013.92
2022-11-30T03:10:58.439Z,1013.92
2022-11-30T03:14:05.159Z,1013.99
2022-11-30T03:17:11.960Z,1014.07
2022-11-30T03:20:18.719Z,1014.05
2022-11-30T03:23:25.442Z,1014.09
2022-11-30T03:26:32.287Z,1014.08
2022-11-30T03:29:38.992Z,1014.07
2022-11-30T03:32:46.132Z,1014.05
2022-11-30T03:35:52.823Z,1014.06
2022-11-30T03:38:59.614Z,1014.10
2022-11-30T03:42:06.484Z,1014.09
2022-11-30T03:45:13.164Z,1014.14
2022-11-30T03:48:19.856Z,1014.14
2022-11-30T03:51:26.651Z,1014.19
2022-11-30T03:54:33.414Z,1014.23
2022-11-30T03:57:40.585Z,1014.21
2022-11-30T04:00:47.385Z,1014.21
2022-11-30T04:03:54.186Z,1014.25
2022-11-30T04:07:01.297Z,1014.27
2022-11-30T04:10:08.798Z,1014.29
2022-11-30T04:13:15.638Z,1014.30
2022-11-30T04:16:22.813Z,1014.27
2022-11-30T04:19:29.178Z,1014.33
2022-11-30T04:22:36.299Z,1014.30
2022-11-30T04:25:43.410Z,1014.32
2022-11-30T04:28:49.841Z,1014.36
2022-11-30T04:31:56.570Z,1014.34
2022-11-30T04:35:03.412Z,1014.35
2022-11-30T04:38:10.122Z,1014.34
2022-11-30T04:41:17.372Z,1014.30
2022-11-30T04:44:24.192Z,1014.37
2022-11-30T04:47:31.073Z,1014.30
2022-11-30T04:50:37.729Z,1014.33
2022-11-30T04:53:44.874Z,1014.34
2022-11-30T04:56:51.804Z,1014.38
2022-11-30T04:59:58.604Z,1014.37
2022-11-30T05:03:05.456Z,1014.34
2022-11-30T05:06:12.425Z,1014.33
2022-11-30T05:09:19.267Z,1014.43
2022-11-30T05:12:25.815Z,1014.42
2022-11-30T05:15:32.257Z,1014.46
2022-11-30T05:18:39.581Z,1014.44
2022-11-30T05:21:46.488Z,1014.49
2022-11-30T05:24:53.377Z,1014.50
2022-11-30T05:28:00.668Z,1014.53
2022-11-30T05:31:07.274Z,1014.49
2022-11-30T05:34:14.489Z,1014.53
2022-11-30T05:37:21.599Z,1014.54
2022-11-30T05:40:28.120Z,1014.62
2022-11-30T05:43:35.452Z,1014.59
2022-11-30T05:46:42.500Z,1014.60
2022-11-30T05:49:49.324Z,1014.68
2022-11-30T05:52:56.695Z,1014.71
2022-11-30T05:56:03.573Z,1014.71
2022-11-30T05:59:10.453Z,1014.72
2022-11-30T06:02:17.073Z,1014.70
2022-11-30T06:05:24.274Z,1014.76
2022-11-30T06:08:31.254Z,1014.71
2022-11-30T06:11:38.165Z,1014.77
2022-11-30T06:14:45.572Z,1014.78
2022-11-30T06:17:52.239Z,1014.87
2022-11-30T06:20:59.247Z,1014.82
2022-11-30T06:24:06.336Z,1014.81
2022-11-30T06:27:12.828Z,1014.89
2022-11-30T06:30:20.200Z,1014.87
2022-11-30T06:33:27.025Z,1014.94
2022-11-30T06:36:36.237Z,1014.91
2022-11-30T06:40:05.393Z,1014.93
2022-11-30T06:42:47.820Z,1014.93
2022-11-30T06:45:54.838Z,1014.92
2022-11-30T06:49:02.149Z,1015.01
2022-11-30T06:52:09.083Z,1015.08
2022-11-30T06:55:16.234Z,1015.16
2022-11-30T06:58:24.230Z,1015.14
2022-11-30T07:01:31.677Z,1015.19
2022-11-30T07:04:38.964Z,1015.19
2022-11-30T07:07:46.287Z,1015.21
2022-11-30T07:10:54.005Z,1015.25
2022-11-30T07:14:01.375Z,1015.25
2022-11-30T07:17:08.636Z,1015.20
2022-11-30T07:20:16.155Z,1015.30
2022-11-30T07:23:23.413Z,1015.33
2022-11-30T07:26:30.806Z,1015.29
2022-11-30T07:29:38.215Z,1015.34
2022-11-30T07:32:45.167Z,1015.37
2022-11-30T07:35:52.995Z,1015.36
2022-11-30T07:39:00.637Z,1015.38
2022-11-30T07:42:07.629Z,1015.39
2022-11-30T07:45:15.468Z,1015.38
2022-11-30T07:48:22.820Z,1015.40
2022-11-30T07:51:29.769Z,1015.41
2022-11-30T07:54:37.112Z,1015.44
2022-11-30T07:57:43.975Z,1015.45
2022-11-30T08:00:51.009Z,1015.51
2022-11-30T08:03:58.232Z,1015.54
2022-11-30T08:07:05.106Z,1015.55
2022-11-30T08:10:12.382Z,1015.57
2022-11-30T08:13:19.203Z,1015.60
2022-11-30T08:16:26.061Z,1015.62
2022-11-30T08:19:32.506Z,1015.50
2022-11-30T08:22:39.185Z,1015.58
2022-11-30T08:25:46.324Z,1015.49
2022-11-30T08:28:53.144Z,1015.52
2022-11-30T08:31:59.841Z,1015.60
2022-11-30T08:35:06.759Z,1015.61
2022-11-30T08:38:13.529Z,1015.64
2022-11-30T08:41:20.339Z,1015.60
2022-11-30T08:44:27.498Z,1015.63
2022-11-30T08:47:33.980Z,1015.60
2022-11-30T08:50:41.180Z,1015.64
2022-11-30T08:53:48.389Z,1015.70
2022-11-30T08:56:54.751Z,1015.70
2022-11-30T09:00:02.172Z,1015.75
2022-11-30T09:03:09.202Z,1015.75
2022-11-30T09:06:15.684Z,1015.81
2022-11-30T09:09:22.593Z,1015.78
2022-11-30T09:12:29.423Z,1015.86
2022-11-30T09:15:36.336Z,1015.87
2022-11-30T09:18:43.432Z,1015.83
2022-11-30T09:21:52.291Z,1015.86
2022-11-30T09:24:59.541Z,1015.86
2022-11-30T09:28:10.869Z,1015.82
2022-11-30T09:31:08.423Z,1015.83
2022-11-30T09:34:15.307Z,1015.84
2022-11-30T09:37:22.428Z,1015.85
2022-11-30T09:40:34.016Z,1015.85
2022-11-30T09:43:31.728Z,1015.89
2022-11-30T09:46:38.559Z,1015.82
2022-11-30T09:49:45.889Z,1015.84
2022-11-30T09:52:52.729Z,1015.86
2022-11-30T09:55:59.450Z,1015.84
2022-11-30T09:59:06.565Z,1015.82
2022-11-30T10:02:13.475Z,1015.81
2022-11-30T10:05:20.253Z,1015.74
2022-11-30T10:08:26.833Z,1015.76
2022-11-30T10:11:33.594Z,1015.77
2022-11-30T10:14:40.725Z,1015.84
2022-11-30T10:17:47.462Z,1015.83
2022-11-30T10:20:54.294Z,1015.72
2022-11-30T10:24:01.476Z,1015.80
2022-11-30T10:27:07.955Z,1015.82
2022-11-30T10:30:14.942Z,1015.76
2022-11-30T10:33:22.008Z,1015.77
2022-11-30T10:36:28.427Z,1015.75
2022-11-30T10:39:35.208Z,1015.79
2022-11-30T10:42:42.182Z,1015.77
2022-11-30T10:45:48.588Z,1015.79
2022-11-30T10:48:55.620Z,1015.73
2022-11-30T10:52:02.319Z,1015.78
2022-11-30T10:55:09.096Z,1015.81
2022-11-30T10:58:16.109Z,1015.82
2022-11-30T11:01:22.843Z,1015.85
2022-11-30T11:04:29.643Z,1015.79
2022-11-30T11:07:36.415Z,1015.80
2022-11-30T11:10:43.413Z,1015.90
2022-11-30T11:13:50.194Z,1015.92
2022-11-30T11:16:56.952Z,1015.86
2022-11-30T11:20:03.943Z,1015.92
2022-11-30T11:23:10.989Z,1015.94
2022-11-30T11:26:17.873Z,1015.97
2022-11-30T11:29:24.845Z,1016.00
2022-11-30T11:32:31.302Z,1016.00
2022-11-30T11:35:38.376Z,1016.05
2022-11-30T11:38:45.589Z,1016.05
2022-11-30T11:41:51.988Z,1016.04
2022-11-30T11:44:59.439Z,1016.03
2022-11-30T11:48:06.367Z,1016.13
2022-11-30T11:51:13.308Z,1016.10
2022-11-30T11:54:20.380Z,1016.08
2022-11-30T11:57:27.130Z,1016.10
2022-11-30T12:00:34.041Z,1016.00
2022-11-30T12:03:40.831Z,1016.13
2022-11-30T12:06:47.613Z,1016.06
2022-11-30T12:09:54.500Z,1016.07
2022-11-30T12:13:01.362Z,1016.09
2022-11-30T12:16:08.333Z,1016.13
2022-11-30T12:19:15.204Z,1016.16
2022-11-30T12:22:22.145Z,1016.15
2022-11-30T12:25:28.983Z,1016.14
2022-11-30T12:28:35.664Z,1016.21
2022-11-30T12:31:42.700Z,1016.20
2022-11-30T12:34:49.391Z,1016.20
2022-11-30T12:37:56.214Z,1016.17
2022-11-30T12:41:03.437Z,1016.19
2022-11-30T12:44:10.108Z,1016.26
2022-11-30T12:47:16.858Z,1016.20
2022-11-30T12:50:23.998Z,1016.21
2022-11-30T12:53:30.521Z,1016.20
2022-11-30T12:56:40.253Z,1016.22
2022-11-30T12:59:40.300Z,1016.25
2022-11-30T13:02:46.881Z,1016.29
2022-11-30T13:05:53.900Z,1016.30
2022-11-30T13:09:00.650Z,1016.37
2022-11-30T13:12:07.112Z,1016.32
2022-11-30T13:15:15.947Z,1016.35
2022-11-30T13:18:22.498Z,1016.30
2022-11-30T13:21:29.794Z,1016.34
2022-11-30T13:24:36.874Z,1016.33
2022-11-30T13:27:43.360Z,1016.30
2022-11-30T13:30:50.363Z,1016.36
2022-11-30T13:33:57.385Z,1016.27
2022-11-30T13:37:04.182Z,1016.26
2022-11-30T13:40:11.297Z,1016.26
2022-11-30T13:43:18.063Z,1016.30
2022-11-30T13:46:24.922Z,1016.27
2022-11-30T13:49:31.954Z,1016.19
2022-11-30T13:52:38.848Z,1016.30
2022-11-30T13:55:45.614Z,1016.28
2022-11-30T13:58:52.778Z,1016.25
2022-11-30T14:04:34.690Z,1016.29
2022-11-30T14:07:41.470Z,1016.30
2022-11-30T14:10:48.460Z,1016.32
2022-11-30T14:13:55.211Z,1016.34
2022-11-30T14:17:02.165Z,1016.26
2022-11-30T14:20:09.281Z,1016.39
2022-11-30T14:23:16.132Z,1016.39
2022-11-30T14:26:22.912Z,1016.43
2022-11-30T14:29:29.934Z,1016.38
2022-11-30T14:32:36.433Z,1016.40
2022-11-30T14:35:43.635Z,1016.40
2022-11-30T14:38:50.929Z,1016.49
2022-11-30T14:41:57.404Z,1016.44
2022-11-30T14:45:04.576Z,1016.43
2022-11-30T14:48:11.866Z,1016.46
2022-11-30T14:51:18.396Z,1016.51
2022-11-30T14:54:25.659Z,1016.46
2022-11-30T14:57:32.649Z,1016.61
2022-11-30T15:00:39.562Z,1016.57
2022-11-30T15:03:46.879Z,1016.58
2022-11-30T15:06:53.629Z,1016.61
2022-11-30T15:10:00.288Z,1016.69
2022-11-30T15:13:07.049Z,1016.67
2022-11-30T15:16:14.001Z,1016.69
2022-11-30T15:19:20.763Z,1016.72
2022-11-30T15:22:27.422Z,1016.75
2022-11-30T15:25:34.405Z,1016.75
2022-11-30T15:28:41.142Z,1016.79
2022-11-30T15:31:47.963Z,1016.79
2022-11-30T15:34:56.758Z,1016.77
2022-11-30T15:38:03.543Z,1016.74
2022-11-30T15:41:10.917Z,1016.78
2022-11-30T15:44:18.406Z,1016.86
2022-11-30T15:47:25.067Z,1016.86
2022-11-30T15:50:32.313Z,1016.87
2022-11-30T15:53:39.516Z,1016.84
2022-11-30T15:56:46.285Z,1016.84
2022-11-30T15:59:53.565Z,1016.91
2022-11-30T16:03:00.765Z,1016.96
2022-11-30T16:06:07.877Z,1016.89
2022-11-30T16:09:15.502Z,1016.90
2022-11-30T16:12:22.459Z,1016.88
2022-11-30T16:15:29.490Z,1016.96
2022-11-30T16:18:36.900Z,1016.94
2022-11-30T16:21:43.980Z,1017.01
2022-11-30T16:24:51.108Z,1017.02
2022-11-30T16:27:58.140Z,1017.01
2022-11-30T16:31:05.681Z,1017.05
2022-11-30T16:34:12.895Z,1017.08
2022-11-30T16:37:20.063Z,1017.14
2022-11-30T16:40:27.408Z,1017.21
2022-11-30T16:43:34.281Z,1017.27
2022-11-30T16:46:41.444Z,1017.27
2022-11-30T16:49:48.950Z,1017.27
2022-11-30T16:52:55.885Z,1017.35
2022-11-30T16:56:03.356Z,1017.35
2022-11-30T16:59:16.493Z,1017.36
2022-11-30T17:02:12.964Z,1017.32
2022-11-30T17:05:20.748Z,1017.45
2022-11-30T17:08:27.907Z,1017.45
2022-11-30T17:11:35.146Z,1017.50
2022-11-30T17:14:42.678Z,1017.52
2022-11-30T17:17:49.850Z,1017.51
2022-11-30T17:20:56.908Z,1017.49
2022-11-30T17:24:04.099Z,1017.49
2022-11-30T17:27:13.119Z,1017.44
2022-11-30T17:30:19.824Z,1017.46
2022-11-30T17:33:26.551Z,1017.43
2022-11-30T17:36:33.821Z,1017.44
2022-11-30T17:39:40.781Z,1017.52
2022-11-30T17:42:47.283Z,1017.56
2022-11-30T17:45:54.759Z,1017.57
2022-11-30T17:49:02.014Z,1017.63
2022-11-30T17:52:08.583Z,1017.66
2022-11-30T17:55:15.894Z,1017.65
2022-11-30T17:58:22.467Z,1017.69
2022-11-30T18:01:30.152Z,1017.66
2022-11-30T18:04:37.455Z,1017.67
2022-11-30T18:07:44.005Z,1017.74
2022-11-30T18:10:51.204Z,1017.73
2022-11-30T18:13:58.437Z,1017.72
2022-11-30T18:17:05.010Z,1017.72
2022-11-30T18:20:11.981Z,1017.83
2022-11-30T18:23:18.407Z,1017.88
2022-11-30T18:26:25.267Z,1017.89
2022-11-30T18:29:32.457Z,1017.90
2022-11-30T18:32:38.961Z,1017.98
2022-11-30T18:35:46.297Z,1018.02
2022-11-30T18:38:53.390Z,1018.01
2022-11-30T18:41:59.850Z,1018.02
2022-11-30T18:45:06.744Z,1018.06
2022-11-30T18:48:13.825Z,1018.08
2022-11-30T18:51:21.133Z,1018.14
2022-11-30T18:54:30.396Z,1018.11
2022-11-30T18:57:37.881Z,1018.11
2022-11-30T19:00:44.915Z,1018.08
2022-11-30T19:03:52.233Z,1018.10
2022-11-30T19:07:00.543Z,1018.11
2022-11-30T19:10:07.703Z,1018.13
2022-11-30T19:13:14.563Z,1018.14
2022-11-30T19:16:22.037Z,1018.17
2022-11-30T19:19:28.620Z,1018.20
2022-11-30T19:22:35.227Z,1018.17
2022-11-30T19:25:42.246Z,1018.22
2022-11-30T19:28:49.077Z,1018.24
2022-11-30T19:31:55.527Z,1018.32
2022-11-30T19:35:02.378Z,1018.31
2022-11-30T19:38:08.845Z,1018.31
2022-11-30T19:41:16.161Z,1018.32
2022-11-30T19:44:22.999Z,1018.38
2022-11-30T19:47:29.420Z,1018.42
2022-11-30T19:50:36.630Z,1018.45
2022-11-30T19:53:43.022Z,1018.49
2022-11-30T19:56:49.541Z,1018.45
2022-11-30T19:59:56.833Z,1018.46
2022-11-30T20:03:03.407Z,1018.51
2022-11-30T20:06:10.462Z,1018.57
2022-11-30T20:09:17.273Z,1018.57
2022-11-30T20:12:23.681Z,1018.63
2022-11-30T20:15:30.563Z,1018.59
2022-11-30T20:18:41.280Z,1018.61
2022-11-30T20:21:38.605Z,1018.59
2022-11-30T20:24:46.232Z,1018.59
2022-11-30T20:27:53.148Z,1018.56
2022-11-30T20:31:00.777Z,1018.63
2022-11-30T20:34:07.666Z,1018.68
2022-11-30T20:37:14.682Z,1018.66
2022-11-30T20:40:21.528Z,1018.64
2022-11-30T20:43:28.264Z,1018.63
2022-11-30T20:46:35.500Z,1018.66
2022-11-30T20:49:42.307Z,1018.59
2022-11-30T20:52:49.249Z,1018.56
2022-11-30T20:55:56.450Z,1018.57
2022-11-30T20:59:03.361Z,1018.59
2022-11-30T21:02:10.454Z,1018.62
2022-11-30T21:05:18.129Z,1018.64
2022-11-30T21:08:25.283Z,1018.64
2022-11-30T21:11:33.303Z,1018.66
2022-11-30T21:14:41.242Z,1018.64
2022-11-30T21:17:48.265Z,1018.59
2022-11-30T21:20:56.221Z,1018.58
2022-11-30T21:24:04.116Z,1018.71
2022-11-30T21:27:11.338Z,1018.70
2022-11-30T21:30:19.265Z,1018.80
2022-11-30T21:33:26.745Z,1018.69
2022-11-30T21:36:34.355Z,1018.74
2022-11-30T21:39:42.166Z,1018.76
2022-11-30T21:42:49.292Z,1018.76
2022-11-30T21:45:57.238Z,1018.77
2022-11-30T21:49:04.877Z,1018.69
2022-11-30T21:52:11.835Z,1018.71
2022-11-30T21:55:19.672Z,1018.65
2022-11-30T21:58:27.206Z,1018.77
2022-11-30T22:01:34.653Z,1018.70
2022-11-30T22:04:42.449Z,1018.74
2022-11-30T22:07:49.606Z,1018.75
2022-11-30T22:10:57.261Z,1018.78
2022-11-30T22:14:04.800Z,1018.78
2022-11-30T22:17:11.971Z,1018.82
2022-11-30T22:20:19.893Z,1018.79
2022-11-30T22:23:27.588Z,1018.83
2022-11-30T22:26:35.613Z,1018.81
2022-11-30T22:29:42.865Z,1018.87
2022-11-30T22:32:50.415Z,1018.81
2022-11-30T22:35:57.650Z,1018.86
2022-11-30T22:39:04.481Z,1018.79
2022-11-30T22:42:11.289Z,1018.85
2022-11-30T22:45:18.416Z,1018.84
2022-11-30T22:48:25.225Z,1018.83
2022-11-30T22:51:32.057Z,1018.82
2022-11-30T22:54:39.500Z,1018.84
2022-11-30T22:57:45.936Z,1018.87
2022-11-30T23:00:53.177Z,1018.84
2022-11-30T23:04:00.328Z,1018.86
2022-11-30T23:07:06.758Z,1018.87
2022-11-30T23:10:13.768Z,1018.91
2022-11-30T23:13:20.740Z,1018.83
2022-11-30T23:16:27.762Z,1018.87
2022-11-30T23:19:34.570Z,1018.86
2022-11-30T23:22:41.321Z,1018.84
2022-11-30T23:25:48.300Z,1018.89
2022-11-30T23:28:55.161Z,1018.85
2022-11-30T23:32:02.135Z,1018.85
2022-11-30T23:35:09.001Z,1018.79
2022-11-30T23:38:15.402Z,1018.89
2022-11-30T23:41:22.603Z,1018.87
2022-11-30T23:44:29.821Z,1018.93
2022-11-30T23:47:36.263Z,1018.86
2022-11-30T23:50:43.478Z,1018.88
2022-11-30T23:53:50.228Z,1018.93
2022-11-30T23:56:57.118Z,1018.97
